sensor_id;sensor_type;location;lat;lon;timestamp;temperature;humidity
48988;DHT22;34799;51.440;-2.534;2023-03-23T00:01:57;9.50;99.90
48988;DHT22;34799;51.440;-2.534;2023-03-23T00:04:22;9.50;99.90
48988;DHT22;34799;51.440;-2.534;2023-03-23T00:06:53;9.50;99.90
48988;DHT22;34799;51.440;-2.534;2023-03-23T00:09:19;9.50;99.90
48988;DHT22;34799;51.440;-2.534;2023-03-23T00:11:51;9.50;99.90
48988;DHT22;34799;51.440;-2.534;2023-03-23T00:14:17;9.50;99.90
48988;DHT22;34799;51.440;-2.534;2023-03-23T00:16:48;9.40;99.90
48988;DHT22;34799;51.440;-2.534;2023-03-23T00:19:16;9.40;99.90
48988;DHT22;34799;51.440;-2.534;2023-03-23T00:21:43;9.40;99.90
48988;DHT22;34799;51.440;-2.534;2023-03-23T00:24:16;9.40;99.90
48988;DHT22;34799;51.440;-2.534;2023-03-23T00:26:46;9.40;99.90
48988;DHT22;34799;51.440;-2.534;2023-03-23T00:29:18;9.40;99.90
48988;DHT22;34799;51.440;-2.534;2023-03-23T00:31:50;9.40;99.90
48988;DHT22;34799;51.440;-2.534;2023-03-23T00:34:20;9.40;99.90
48988;DHT22;34799;51.440;-2.534;2023-03-23T00:36:52;9.30;99.90
48988;DHT22;34799;51.440;-2.534;2023-03-23T00:39:28;9.30;99.90
48988;DHT22;34799;51.440;-2.534;2023-03-23T00:41:54;9.30;99.90
48988;DHT22;34799;51.440;-2.534;2023-03-23T00:44:28;9.30;99.90
48988;DHT22;34799;51.440;-2.534;2023-03-23T00:46:56;9.30;99.90
48988;DHT22;34799;51.440;-2.534;2023-03-23T00:49:24;9.30;99.90
48988;DHT22;34799;51.440;-2.534;2023-03-23T00:51:52;9.30;99.90
48988;DHT22;34799;51.440;-2.534;2023-03-23T00:54:21;9.30;99.90
48988;DHT22;34799;51.440;-2.534;2023-03-23T00:56:49;9.20;99.90
48988;DHT22;34799;51.440;-2.534;2023-03-23T00:59:16;9.20;99.90
48988;DHT22;34799;51.440;-2.534;2023-03-23T01:01:43;9.20;99.90
48988;DHT22;34799;51.440;-2.534;2023-03-23T01:04:09;9.20;99.90
48988;DHT22;34799;51.440;-2.534;2023-03-23T01:06:40;9.10;99.90
48988;DHT22;34799;51.440;-2.534;2023-03-23T01:09:13;9.10;99.90
48988;DHT22;34799;51.440;-2.534;2023-03-23T01:11:48;9.10;99.90
48988;DHT22;34799;51.440;-2.534;2023-03-23T01:14:17;9.30;99.90
48988;DHT22;34799;51.440;-2.534;2023-03-23T01:16:44;9.10;99.90
48988;DHT22;34799;51.440;-2.534;2023-03-23T01:19:10;9.30;99.90
48988;DHT22;34799;51.440;-2.534;2023-03-23T01:21:37;9.40;99.90
48988;DHT22;34799;51.440;-2.534;2023-03-23T01:24:03;9.00;99.90
48988;DHT22;34799;51.440;-2.534;2023-03-23T01:26:29;9.00;99.90
48988;DHT22;34799;51.440;-2.534;2023-03-23T01:28:55;9.00;99.90
48988;DHT22;34799;51.440;-2.534;2023-03-23T01:31:22;9.00;99.90
48988;DHT22;34799;51.440;-2.534;2023-03-23T01:33:48;9.00;99.90
48988;DHT22;34799;51.440;-2.534;2023-03-23T01:36:21;10.50;99.90
48988;DHT22;34799;51.440;-2.534;2023-03-23T01:38:49;8.90;99.90
48988;DHT22;34799;51.440;-2.534;2023-03-23T01:41:17;9.00;99.90
48988;DHT22;34799;51.440;-2.534;2023-03-23T01:44:06;9.00;99.90
48988;DHT22;34799;51.440;-2.534;2023-03-23T01:46:46;9.00;99.90
48988;DHT22;34799;51.440;-2.534;2023-03-23T01:49:20;8.90;99.90
48988;DHT22;34799;51.440;-2.534;2023-03-23T01:51:51;8.90;99.90
48988;DHT22;34799;51.440;-2.534;2023-03-23T01:54:20;8.90;99.90
48988;DHT22;34799;51.440;-2.534;2023-03-23T01:56:55;8.80;99.90
48988;DHT22;34799;51.440;-2.534;2023-03-23T01:59:23;8.80;99.90
48988;DHT22;34799;51.440;-2.534;2023-03-23T02:02:07;8.80;99.90
48988;DHT22;34799;51.440;-2.534;2023-03-23T02:04:34;8.70;99.90
48988;DHT22;34799;51.440;-2.534;2023-03-23T02:07:00;8.70;99.90
48988;DHT22;34799;51.440;-2.534;2023-03-23T02:09:29;9.20;99.90
48988;DHT22;34799;51.440;-2.534;2023-03-23T02:11:55;9.40;99.90
48988;DHT22;34799;51.440;-2.534;2023-03-23T02:14:23;8.70;99.90
48988;DHT22;34799;51.440;-2.534;2023-03-23T02:17:09;9.30;99.90
48988;DHT22;34799;51.440;-2.534;2023-03-23T02:22:48;8.70;99.90
48988;DHT22;34799;51.440;-2.534;2023-03-23T02:28:34;8.60;99.90
48988;DHT22;34799;51.440;-2.534;2023-03-23T02:31:37;8.60;99.90
48988;DHT22;34799;51.440;-2.534;2023-03-23T02:34:17;8.60;99.90
48988;DHT22;34799;51.440;-2.534;2023-03-23T02:36:50;8.60;99.90
48988;DHT22;34799;51.440;-2.534;2023-03-23T02:39:23;8.60;99.90
48988;DHT22;34799;51.440;-2.534;2023-03-23T02:42:08;8.60;99.90
48988;DHT22;34799;51.440;-2.534;2023-03-23T02:44:39;8.80;99.90
48988;DHT22;34799;51.440;-2.534;2023-03-23T02:47:11;8.80;99.90
48988;DHT22;34799;51.440;-2.534;2023-03-23T02:49:40;8.90;99.90
48988;DHT22;34799;51.440;-2.534;2023-03-23T02:52:12;8.60;99.90
48988;DHT22;34799;51.440;-2.534;2023-03-23T02:54:43;7.90;99.90
48988;DHT22;34799;51.440;-2.534;2023-03-23T02:57:10;8.50;99.90
48988;DHT22;34799;51.440;-2.534;2023-03-23T02:59:40;8.90;99.90
48988;DHT22;34799;51.440;-2.534;2023-03-23T03:02:14;8.60;99.90
48988;DHT22;34799;51.440;-2.534;2023-03-23T03:04:51;8.40;99.90
48988;DHT22;34799;51.440;-2.534;2023-03-23T03:10:10;8.50;99.90
48988;DHT22;34799;51.440;-2.534;2023-03-23T03:12:51;8.40;99.90
48988;DHT22;34799;51.440;-2.534;2023-03-23T03:18:11;8.40;99.90
48988;DHT22;34799;51.440;-2.534;2023-03-23T03:20:47;8.40;99.90
48988;DHT22;34799;51.440;-2.534;2023-03-23T03:23:16;8.30;99.90
48988;DHT22;34799;51.440;-2.534;2023-03-23T03:25:45;8.40;99.90
48988;DHT22;34799;51.440;-2.534;2023-03-23T03:28:19;9.00;99.90
48988;DHT22;34799;51.440;-2.534;2023-03-23T03:30:54;8.40;99.90
48988;DHT22;34799;51.440;-2.534;2023-03-23T03:33:23;9.10;99.90
48988;DHT22;34799;51.440;-2.534;2023-03-23T03:35:55;8.80;99.90
48988;DHT22;34799;51.440;-2.534;2023-03-23T03:38:21;8.20;99.90
48988;DHT22;34799;51.440;-2.534;2023-03-23T03:40:49;8.50;99.90
48988;DHT22;34799;51.440;-2.534;2023-03-23T03:43:16;8.70;99.90
48988;DHT22;34799;51.440;-2.534;2023-03-23T03:45:42;8.40;99.90
48988;DHT22;34799;51.440;-2.534;2023-03-23T03:48:12;8.60;99.90
48988;DHT22;34799;51.440;-2.534;2023-03-23T03:50:38;8.20;99.90
48988;DHT22;34799;51.440;-2.534;2023-03-23T03:53:05;8.70;99.90
48988;DHT22;34799;51.440;-2.534;2023-03-23T03:55:32;8.30;99.90
48988;DHT22;34799;51.440;-2.534;2023-03-23T03:58:09;8.20;99.90
48988;DHT22;34799;51.440;-2.534;2023-03-23T04:00:55;8.20;99.90
48988;DHT22;34799;51.440;-2.534;2023-03-23T04:03:28;8.30;99.90
48988;DHT22;34799;51.440;-2.534;2023-03-23T04:06:05;8.30;99.90
48988;DHT22;34799;51.440;-2.534;2023-03-23T04:08:34;8.20;99.90
48988;DHT22;34799;51.440;-2.534;2023-03-23T04:11:01;8.20;99.90
48988;DHT22;34799;51.440;-2.534;2023-03-23T04:13:30;8.20;99.90
48988;DHT22;34799;51.440;-2.534;2023-03-23T04:16:04;9.00;99.90
48988;DHT22;34799;51.440;-2.534;2023-03-23T04:18:34;8.20;99.90
48988;DHT22;34799;51.440;-2.534;2023-03-23T04:21:02;9.00;99.90
48988;DHT22;34799;51.440;-2.534;2023-03-23T04:23:30;8.20;99.90
48988;DHT22;34799;51.440;-2.534;2023-03-23T04:26:02;8.70;99.90
48988;DHT22;34799;51.440;-2.534;2023-03-23T04:28:35;8.20;99.90
48988;DHT22;34799;51.440;-2.534;2023-03-23T04:31:20;8.60;99.90
48988;DHT22;34799;51.440;-2.534;2023-03-23T04:33:52;8.20;99.90
48988;DHT22;34799;51.440;-2.534;2023-03-23T04:36:20;9.20;99.90
48988;DHT22;34799;51.440;-2.534;2023-03-23T04:38:59;8.30;99.90
48988;DHT22;34799;51.440;-2.534;2023-03-23T04:41:26;8.30;99.90
48988;DHT22;34799;51.440;-2.534;2023-03-23T04:44:03;8.30;99.90
48988;DHT22;34799;51.440;-2.534;2023-03-23T04:46:36;8.50;99.90
48988;DHT22;34799;51.440;-2.534;2023-03-23T04:49:07;8.30;99.90
48988;DHT22;34799;51.440;-2.534;2023-03-23T04:51:38;8.30;99.90
48988;DHT22;34799;51.440;-2.534;2023-03-23T04:54:34;8.30;99.90
48988;DHT22;34799;51.440;-2.534;2023-03-23T04:57:01;8.70;99.90
48988;DHT22;34799;51.440;-2.534;2023-03-23T04:59:27;8.30;99.90
48988;DHT22;34799;51.440;-2.534;2023-03-23T05:02:08;8.70;99.90
48988;DHT22;34799;51.440;-2.534;2023-03-23T05:04:35;8.30;99.90
48988;DHT22;34799;51.440;-2.534;2023-03-23T05:07:12;8.60;99.90
48988;DHT22;34799;51.440;-2.534;2023-03-23T05:09:47;8.30;99.90
48988;DHT22;34799;51.440;-2.534;2023-03-23T05:12:14;8.30;99.90
48988;DHT22;34799;51.440;-2.534;2023-03-23T05:15:11;8.30;99.90
48988;DHT22;34799;51.440;-2.534;2023-03-23T05:17:37;8.30;99.90
48988;DHT22;34799;51.440;-2.534;2023-03-23T05:20:14;8.70;99.90
48988;DHT22;34799;51.440;-2.534;2023-03-23T05:22:44;8.30;99.90
48988;DHT22;34799;51.440;-2.534;2023-03-23T05:25:13;8.70;99.90
48988;DHT22;34799;51.440;-2.534;2023-03-23T05:27:44;8.20;99.90
48988;DHT22;34799;51.440;-2.534;2023-03-23T05:30:37;8.90;99.90
48988;DHT22;34799;51.440;-2.534;2023-03-23T05:33:05;8.20;99.90
48988;DHT22;34799;51.440;-2.534;2023-03-23T05:35:54;8.80;99.90
48988;DHT22;34799;51.440;-2.534;2023-03-23T05:38:27;9.00;99.90
48988;DHT22;34799;51.440;-2.534;2023-03-23T05:40:57;8.30;99.90
48988;DHT22;34799;51.440;-2.534;2023-03-23T05:43:28;8.30;99.90
48988;DHT22;34799;51.440;-2.534;2023-03-23T05:46:15;8.30;99.90
48988;DHT22;34799;51.440;-2.534;2023-03-23T05:48:41;8.30;99.90
48988;DHT22;34799;51.440;-2.534;2023-03-23T05:51:14;8.30;99.90
48988;DHT22;34799;51.440;-2.534;2023-03-23T05:53:42;8.40;99.90
48988;DHT22;34799;51.440;-2.534;2023-03-23T05:56:11;8.30;99.90
48988;DHT22;34799;51.440;-2.534;2023-03-23T05:58:57;8.80;99.90
48988;DHT22;34799;51.440;-2.534;2023-03-23T06:01:25;8.80;99.90
48988;DHT22;34799;51.440;-2.534;2023-03-23T06:03:52;8.40;99.90
48988;DHT22;34799;51.440;-2.534;2023-03-23T06:06:27;8.40;99.90
48988;DHT22;34799;51.440;-2.534;2023-03-23T06:09:08;8.40;99.90
48988;DHT22;34799;51.440;-2.534;2023-03-23T06:11:52;8.40;99.90
48988;DHT22;34799;51.440;-2.534;2023-03-23T06:14:30;8.40;99.90
48988;DHT22;34799;51.440;-2.534;2023-03-23T06:16:57;8.50;99.90
48988;DHT22;34799;51.440;-2.534;2023-03-23T06:19:23;8.50;99.90
48988;DHT22;34799;51.440;-2.534;2023-03-23T06:22:03;8.70;99.90
48988;DHT22;34799;51.440;-2.534;2023-03-23T06:24:43;9.40;99.90
48988;DHT22;34799;51.440;-2.534;2023-03-23T06:27:11;8.50;99.90
48988;DHT22;34799;51.440;-2.534;2023-03-23T06:29:36;8.50;99.90
48988;DHT22;34799;51.440;-2.534;2023-03-23T06:32:04;8.60;99.90
48988;DHT22;34799;51.440;-2.534;2023-03-23T06:34:31;8.60;99.90
48988;DHT22;34799;51.440;-2.534;2023-03-23T06:37:03;8.70;99.90
48988;DHT22;34799;51.440;-2.534;2023-03-23T06:39:36;8.70;99.90
48988;DHT22;34799;51.440;-2.534;2023-03-23T06:42:22;8.70;99.90
48988;DHT22;34799;51.440;-2.534;2023-03-23T06:45:00;8.90;99.90
48988;DHT22;34799;51.440;-2.534;2023-03-23T06:47:28;8.80;99.90
48988;DHT22;34799;51.440;-2.534;2023-03-23T06:49:57;8.90;99.90
48988;DHT22;34799;51.440;-2.534;2023-03-23T06:52:26;9.00;99.90
48988;DHT22;34799;51.440;-2.534;2023-03-23T06:54:53;9.50;99.90
48988;DHT22;34799;51.440;-2.534;2023-03-23T06:57:20;9.10;99.90
48988;DHT22;34799;51.440;-2.534;2023-03-23T06:59:50;9.10;99.90
48988;DHT22;34799;51.440;-2.534;2023-03-23T07:02:16;9.20;99.90
48988;DHT22;34799;51.440;-2.534;2023-03-23T07:04:46;9.70;99.90
48988;DHT22;34799;51.440;-2.534;2023-03-23T07:07:20;9.30;99.90
48988;DHT22;34799;51.440;-2.534;2023-03-23T07:10:16;9.30;99.90
48988;DHT22;34799;51.440;-2.534;2023-03-23T07:12:42;9.30;99.90
48988;DHT22;34799;51.440;-2.534;2023-03-23T07:15:10;9.40;99.90
48988;DHT22;34799;51.440;-2.534;2023-03-23T07:17:40;9.40;99.90
48988;DHT22;34799;51.440;-2.534;2023-03-23T07:20:26;9.50;99.90
48988;DHT22;34799;51.440;-2.534;2023-03-23T07:22:54;9.60;99.90
48988;DHT22;34799;51.440;-2.534;2023-03-23T07:25:34;10.00;99.90
48988;DHT22;34799;51.440;-2.534;2023-03-23T07:28:01;9.70;99.90
48988;DHT22;34799;51.440;-2.534;2023-03-23T07:30:28;9.90;99.90
48988;DHT22;34799;51.440;-2.534;2023-03-23T07:32:59;10.00;99.90
48988;DHT22;34799;51.440;-2.534;2023-03-23T07:35:29;10.10;99.90
48988;DHT22;34799;51.440;-2.534;2023-03-23T07:38:03;10.10;99.90
48988;DHT22;34799;51.440;-2.534;2023-03-23T07:40:30;10.20;99.90
48988;DHT22;34799;51.440;-2.534;2023-03-23T07:43:04;10.20;99.90
48988;DHT22;34799;51.440;-2.534;2023-03-23T07:45:49;10.20;99.90
48988;DHT22;34799;51.440;-2.534;2023-03-23T07:48:16;10.20;99.90
48988;DHT22;34799;51.440;-2.534;2023-03-23T07:50:42;10.30;99.90
48988;DHT22;34799;51.440;-2.534;2023-03-23T07:53:11;10.30;99.90
48988;DHT22;34799;51.440;-2.534;2023-03-23T07:55:40;10.30;99.90
48988;DHT22;34799;51.440;-2.534;2023-03-23T07:58:32;10.50;99.90
48988;DHT22;34799;51.440;-2.534;2023-03-23T08:00:59;10.50;99.90
48988;DHT22;34799;51.440;-2.534;2023-03-23T08:03:28;10.60;99.90
48988;DHT22;34799;51.440;-2.534;2023-03-23T08:06:10;10.60;99.90
48988;DHT22;34799;51.440;-2.534;2023-03-23T08:08:55;10.60;99.90
48988;DHT22;34799;51.440;-2.534;2023-03-23T08:11:41;10.70;99.90
48988;DHT22;34799;51.440;-2.534;2023-03-23T08:14:26;10.70;99.90
48988;DHT22;34799;51.440;-2.534;2023-03-23T08:17:17;10.70;99.90
48988;DHT22;34799;51.440;-2.534;2023-03-23T08:19:55;10.80;99.90
48988;DHT22;34799;51.440;-2.534;2023-03-23T08:22:42;10.80;99.90
48988;DHT22;34799;51.440;-2.534;2023-03-23T08:25:30;10.90;99.90
48988;DHT22;34799;51.440;-2.534;2023-03-23T08:28:15;11.00;99.90
48988;DHT22;34799;51.440;-2.534;2023-03-23T08:31:15;11.00;99.90
48988;DHT22;34799;51.440;-2.534;2023-03-23T08:33:52;11.10;99.90
48988;DHT22;34799;51.440;-2.534;2023-03-23T08:36:32;11.10;99.90
48988;DHT22;34799;51.440;-2.534;2023-03-23T08:39:13;11.20;99.90
48988;DHT22;34799;51.440;-2.534;2023-03-23T08:41:58;11.30;99.90
48988;DHT22;34799;51.440;-2.534;2023-03-23T08:45:05;11.40;99.90
48988;DHT22;34799;51.440;-2.534;2023-03-23T08:47:45;11.40;99.90
48988;DHT22;34799;51.440;-2.534;2023-03-23T08:50:35;11.50;99.90
48988;DHT22;34799;51.440;-2.534;2023-03-23T08:53:19;11.80;99.90
48988;DHT22;34799;51.440;-2.534;2023-03-23T08:55:47;11.60;99.90
48988;DHT22;34799;51.440;-2.534;2023-03-23T08:58:14;11.70;99.90
48988;DHT22;34799;51.440;-2.534;2023-03-23T09:00:59;11.70;99.90
48988;DHT22;34799;51.440;-2.534;2023-03-23T09:03:44;11.70;99.90
48988;DHT22;34799;51.440;-2.534;2023-03-23T09:06:28;11.70;99.90
48988;DHT22;34799;51.440;-2.534;2023-03-23T09:08:54;11.80;99.90
48988;DHT22;34799;51.440;-2.534;2023-03-23T09:11:21;11.80;99.90
48988;DHT22;34799;51.440;-2.534;2023-03-23T09:13:47;11.90;99.90
48988;DHT22;34799;51.440;-2.534;2023-03-23T09:16:14;11.90;99.90
48988;DHT22;34799;51.440;-2.534;2023-03-23T09:18:42;11.90;99.90
48988;DHT22;34799;51.440;-2.534;2023-03-23T09:21:08;12.00;99.90
48988;DHT22;34799;51.440;-2.534;2023-03-23T09:23:34;12.00;99.90
48988;DHT22;34799;51.440;-2.534;2023-03-23T09:26:01;12.10;99.90
48988;DHT22;34799;51.440;-2.534;2023-03-23T09:28:28;12.20;99.90
48988;DHT22;34799;51.440;-2.534;2023-03-23T09:30:55;12.40;99.90
48988;DHT22;34799;51.440;-2.534;2023-03-23T09:33:25;12.50;99.90
48988;DHT22;34799;51.440;-2.534;2023-03-23T09:35:53;12.50;99.90
48988;DHT22;34799;51.440;-2.534;2023-03-23T09:38:19;12.50;99.90
48988;DHT22;34799;51.440;-2.534;2023-03-23T09:43:40;12.50;99.90
48988;DHT22;34799;51.440;-2.534;2023-03-23T09:49:03;12.50;99.90
48988;DHT22;34799;51.440;-2.534;2023-03-23T09:51:49;9.40;99.90
48988;DHT22;34799;51.440;-2.534;2023-03-23T09:54:21;12.50;99.90
48988;DHT22;34799;51.440;-2.534;2023-03-23T09:56:49;12.50;99.90
48988;DHT22;34799;51.440;-2.534;2023-03-23T10:01:55;12.40;99.90
48988;DHT22;34799;51.440;-2.534;2023-03-23T10:04:41;12.50;99.90
48988;DHT22;34799;51.440;-2.534;2023-03-23T10:07:18;12.50;99.90
48988;DHT22;34799;51.440;-2.534;2023-03-23T10:09:49;12.60;99.90
48988;DHT22;34799;51.440;-2.534;2023-03-23T10:15:31;12.80;99.90
48988;DHT22;34799;51.440;-2.534;2023-03-23T10:20:55;13.10;99.90
48988;DHT22;34799;51.440;-2.534;2023-03-23T10:29:14;13.60;99.90
48988;DHT22;34799;51.440;-2.534;2023-03-23T10:37:34;13.60;99.90
48988;DHT22;34799;51.440;-2.534;2023-03-23T10:40:04;13.60;99.90
48988;DHT22;34799;51.440;-2.534;2023-03-23T10:42:37;13.70;99.90
48988;DHT22;34799;51.440;-2.534;2023-03-23T10:45:24;13.80;99.90
48988;DHT22;34799;51.440;-2.534;2023-03-23T10:48:09;13.70;99.90
48988;DHT22;34799;51.440;-2.534;2023-03-23T10:50:37;16.10;99.90
48988;DHT22;34799;51.440;-2.534;2023-03-23T10:53:23;13.70;99.90
48988;DHT22;34799;51.440;-2.534;2023-03-23T10:55:51;13.80;99.90
48988;DHT22;34799;51.440;-2.534;2023-03-23T10:58:25;13.80;99.90
48988;DHT22;34799;51.440;-2.534;2023-03-23T11:00:55;13.80;99.90
48988;DHT22;34799;51.440;-2.534;2023-03-23T11:06:12;13.90;99.90
48988;DHT22;34799;51.440;-2.534;2023-03-23T11:08:52;13.80;99.90
48988;DHT22;34799;51.440;-2.534;2023-03-23T11:11:27;13.80;99.90
48988;DHT22;34799;51.440;-2.534;2023-03-23T11:14:00;13.80;99.90
48988;DHT22;34799;51.440;-2.534;2023-03-23T11:16:32;13.90;99.90
48988;DHT22;34799;51.440;-2.534;2023-03-23T11:19:21;13.90;99.90
48988;DHT22;34799;51.440;-2.534;2023-03-23T11:21:51;13.90;99.90
48988;DHT22;34799;51.440;-2.534;2023-03-23T11:24:26;14.00;99.90
48988;DHT22;34799;51.440;-2.534;2023-03-23T11:26:56;14.10;99.90
48988;DHT22;34799;51.440;-2.534;2023-03-23T11:29:28;14.10;99.90
48988;DHT22;34799;51.440;-2.534;2023-03-23T11:34:30;13.90;99.90
48988;DHT22;34799;51.440;-2.534;2023-03-23T11:37:01;13.90;99.90
48988;DHT22;34799;51.440;-2.534;2023-03-23T11:39:46;13.80;99.90
48988;DHT22;34799;51.440;-2.534;2023-03-23T11:42:24;13.80;99.90
48988;DHT22;34799;51.440;-2.534;2023-03-23T11:44:54;13.80;99.90
48988;DHT22;34799;51.440;-2.534;2023-03-23T11:47:37;13.90;99.90
48988;DHT22;34799;51.440;-2.534;2023-03-23T11:50:18;13.90;99.90
48988;DHT22;34799;51.440;-2.534;2023-03-23T11:52:52;14.00;99.90
48988;DHT22;34799;51.440;-2.534;2023-03-23T11:55:29;14.20;99.90
48988;DHT22;34799;51.440;-2.534;2023-03-23T11:58:00;14.40;99.90
48988;DHT22;34799;51.440;-2.534;2023-03-23T12:00:27;14.40;99.90
48988;DHT22;34799;51.440;-2.534;2023-03-23T12:06:15;14.40;99.90
48988;DHT22;34799;51.440;-2.534;2023-03-23T12:11:35;14.20;99.90
48988;DHT22;34799;51.440;-2.534;2023-03-23T12:22:31;14.20;99.90
48988;DHT22;34799;51.440;-2.534;2023-03-23T12:25:32;14.40;99.90
48988;DHT22;34799;51.440;-2.534;2023-03-23T12:30:54;14.50;99.90
48988;DHT22;34799;51.440;-2.534;2023-03-23T12:33:45;14.50;99.90
48988;DHT22;34799;51.440;-2.534;2023-03-23T12:47:48;14.70;99.90
48988;DHT22;34799;51.440;-2.534;2023-03-23T12:50:33;14.80;99.90
48988;DHT22;34799;51.440;-2.534;2023-03-23T12:55:45;14.80;99.90
48988;DHT22;34799;51.440;-2.534;2023-03-23T12:58:17;14.70;99.90
48988;DHT22;34799;51.440;-2.534;2023-03-23T13:01:08;14.60;99.90
48988;DHT22;34799;51.440;-2.534;2023-03-23T13:04:03;14.40;99.90
48988;DHT22;34799;51.440;-2.534;2023-03-23T13:06:33;14.40;99.90
48988;DHT22;34799;51.440;-2.534;2023-03-23T13:12:09;14.30;99.90
48988;DHT22;34799;51.440;-2.534;2023-03-23T13:17:43;14.30;99.90
48988;DHT22;34799;51.440;-2.534;2023-03-23T13:28:20;14.20;99.90
48988;DHT22;34799;51.440;-2.534;2023-03-23T13:31:14;14.30;99.90
48988;DHT22;34799;51.440;-2.534;2023-03-23T13:33:49;15.60;99.90
48988;DHT22;34799;51.440;-2.534;2023-03-23T13:36:17;14.20;99.90
48988;DHT22;34799;51.440;-2.534;2023-03-23T13:38:47;14.20;99.90
48988;DHT22;34799;51.440;-2.534;2023-03-23T13:41:16;14.20;99.90
48988;DHT22;34799;51.440;-2.534;2023-03-23T13:43:43;14.20;99.90
48988;DHT22;34799;51.440;-2.534;2023-03-23T13:46:24;14.10;99.90
48988;DHT22;34799;51.440;-2.534;2023-03-23T13:49:04;14.00;99.90
48988;DHT22;34799;51.440;-2.534;2023-03-23T13:57:00;13.40;99.90
48988;DHT22;34799;51.440;-2.534;2023-03-23T13:59:35;13.10;99.90
48988;DHT22;34799;51.440;-2.534;2023-03-23T14:02:36;12.80;99.90
48988;DHT22;34799;51.440;-2.534;2023-03-23T14:05:34;12.60;99.90
48988;DHT22;34799;51.440;-2.534;2023-03-23T14:08:03;12.60;99.90
48988;DHT22;34799;51.440;-2.534;2023-03-23T14:11:09;12.50;99.90
48988;DHT22;34799;51.440;-2.534;2023-03-23T14:13:43;12.40;99.90
48988;DHT22;34799;51.440;-2.534;2023-03-23T14:16:22;12.50;99.90
48988;DHT22;34799;51.440;-2.534;2023-03-23T14:18:52;12.30;99.90
48988;DHT22;34799;51.440;-2.534;2023-03-23T14:21:39;12.30;99.90
48988;DHT22;34799;51.440;-2.534;2023-03-23T14:24:09;12.30;99.90
48988;DHT22;34799;51.440;-2.534;2023-03-23T14:26:35;12.30;99.90
48988;DHT22;34799;51.440;-2.534;2023-03-23T14:29:03;12.20;99.90
48988;DHT22;34799;51.440;-2.534;2023-03-23T14:31:29;12.20;99.90
48988;DHT22;34799;51.440;-2.534;2023-03-23T14:33:56;12.10;99.90
48988;DHT22;34799;51.440;-2.534;2023-03-23T14:36:28;12.00;99.90
48988;DHT22;34799;51.440;-2.534;2023-03-23T14:38:59;11.90;99.90
48988;DHT22;34799;51.440;-2.534;2023-03-23T14:41:29;11.90;99.90
48988;DHT22;34799;51.440;-2.534;2023-03-23T14:43:55;12.90;99.90
48988;DHT22;34799;51.440;-2.534;2023-03-23T14:46:21;11.60;99.90
48988;DHT22;34799;51.440;-2.534;2023-03-23T14:51:20;11.60;99.90
48988;DHT22;34799;51.440;-2.534;2023-03-23T14:53:47;11.50;99.90
48988;DHT22;34799;51.440;-2.534;2023-03-23T14:56:19;11.50;99.90
48988;DHT22;34799;51.440;-2.534;2023-03-23T14:58:49;11.40;99.90
48988;DHT22;34799;51.440;-2.534;2023-03-23T15:01:19;11.40;99.90
48988;DHT22;34799;51.440;-2.534;2023-03-23T15:03:57;11.40;99.90
48988;DHT22;34799;51.440;-2.534;2023-03-23T15:06:28;11.40;99.90
48988;DHT22;34799;51.440;-2.534;2023-03-23T15:08:58;11.40;99.90
48988;DHT22;34799;51.440;-2.534;2023-03-23T15:11:31;11.40;99.90
48988;DHT22;34799;51.440;-2.534;2023-03-23T15:14:24;11.50;99.90
48988;DHT22;34799;51.440;-2.534;2023-03-23T15:16:53;11.40;99.90
48988;DHT22;34799;51.440;-2.534;2023-03-23T15:19:37;11.40;99.90
48988;DHT22;34799;51.440;-2.534;2023-03-23T15:22:44;11.40;99.90
48988;DHT22;34799;51.440;-2.534;2023-03-23T15:27:40;11.50;99.90
48988;DHT22;34799;51.440;-2.534;2023-03-23T15:32:51;11.50;99.90
48988;DHT22;34799;51.440;-2.534;2023-03-23T15:35:21;11.50;99.90
48988;DHT22;34799;51.440;-2.534;2023-03-23T15:37:51;11.60;99.90
48988;DHT22;34799;51.440;-2.534;2023-03-23T15:40:20;11.60;99.90
48988;DHT22;34799;51.440;-2.534;2023-03-23T15:42:47;11.60;99.90
48988;DHT22;34799;51.440;-2.534;2023-03-23T15:50:17;11.70;99.90
48988;DHT22;34799;51.440;-2.534;2023-03-23T15:52:46;11.80;99.90
48988;DHT22;34799;51.440;-2.534;2023-03-23T15:57:47;11.80;99.90
48988;DHT22;34799;51.440;-2.534;2023-03-23T16:00:19;11.90;99.90
48988;DHT22;34799;51.440;-2.534;2023-03-23T16:02:54;11.90;99.90
48988;DHT22;34799;51.440;-2.534;2023-03-23T16:05:23;11.90;99.90
48988;DHT22;34799;51.440;-2.534;2023-03-23T16:07:50;11.90;99.90
48988;DHT22;34799;51.440;-2.534;2023-03-23T16:10:20;11.90;99.90
48988;DHT22;34799;51.440;-2.534;2023-03-23T16:12:47;11.90;99.90
48988;DHT22;34799;51.440;-2.534;2023-03-23T16:15:16;12.00;99.90
48988;DHT22;34799;51.440;-2.534;2023-03-23T16:17:44;11.90;99.90
48988;DHT22;34799;51.440;-2.534;2023-03-23T16:20:21;12.00;99.90
48988;DHT22;34799;51.440;-2.534;2023-03-23T16:22:49;12.10;99.90
48988;DHT22;34799;51.440;-2.534;2023-03-23T16:25:17;12.00;99.90
48988;DHT22;34799;51.440;-2.534;2023-03-23T16:27:46;11.90;99.90
48988;DHT22;34799;51.440;-2.534;2023-03-23T16:30:23;11.90;99.90
48988;DHT22;34799;51.440;-2.534;2023-03-23T16:32:51;11.80;99.90
48988;DHT22;34799;51.440;-2.534;2023-03-23T16:35:19;11.70;99.90
48988;DHT22;34799;51.440;-2.534;2023-03-23T16:37:49;11.70;99.90
48988;DHT22;34799;51.440;-2.534;2023-03-23T16:40:18;11.60;99.90
48988;DHT22;34799;51.440;-2.534;2023-03-23T16:42:45;11.50;99.90
48988;DHT22;34799;51.440;-2.534;2023-03-23T16:45:14;11.50;99.90
48988;DHT22;34799;51.440;-2.534;2023-03-23T16:47:42;11.40;99.90
48988;DHT22;34799;51.440;-2.534;2023-03-23T16:50:12;11.40;99.90
48988;DHT22;34799;51.440;-2.534;2023-03-23T16:52:44;11.40;99.90
48988;DHT22;34799;51.440;-2.534;2023-03-23T16:55:15;11.40;99.90
48988;DHT22;34799;51.440;-2.534;2023-03-23T16:57:43;11.40;99.90
48988;DHT22;34799;51.440;-2.534;2023-03-23T17:00:13;11.30;99.90
48988;DHT22;34799;51.440;-2.534;2023-03-23T17:02:42;11.30;99.90
48988;DHT22;34799;51.440;-2.534;2023-03-23T17:05:11;11.30;99.90
48988;DHT22;34799;51.440;-2.534;2023-03-23T17:07:39;11.30;99.90
48988;DHT22;34799;51.440;-2.534;2023-03-23T17:10:09;11.30;99.90
48988;DHT22;34799;51.440;-2.534;2023-03-23T17:12:37;11.20;99.90
48988;DHT22;34799;51.440;-2.534;2023-03-23T17:15:05;11.10;99.90
48988;DHT22;34799;51.440;-2.534;2023-03-23T17:17:33;10.80;99.90
48988;DHT22;34799;51.440;-2.534;2023-03-23T17:20:00;10.70;99.90
48988;DHT22;34799;51.440;-2.534;2023-03-23T17:22:28;10.60;99.90
48988;DHT22;34799;51.440;-2.534;2023-03-23T17:24:56;10.40;99.90
48988;DHT22;34799;51.440;-2.534;2023-03-23T17:27:24;10.40;99.90
48988;DHT22;34799;51.440;-2.534;2023-03-23T17:29:51;10.40;99.90
48988;DHT22;34799;51.440;-2.534;2023-03-23T17:32:18;10.30;99.90
48988;DHT22;34799;51.440;-2.534;2023-03-23T17:34:47;10.20;99.90
48988;DHT22;34799;51.440;-2.534;2023-03-23T17:37:16;10.10;99.90
48988;DHT22;34799;51.440;-2.534;2023-03-23T17:39:43;9.90;99.90
48988;DHT22;34799;51.440;-2.534;2023-03-23T17:42:10;9.80;99.90
48988;DHT22;34799;51.440;-2.534;2023-03-23T17:44:38;9.80;99.90
48988;DHT22;34799;51.440;-2.534;2023-03-23T17:47:05;9.90;99.90
48988;DHT22;34799;51.440;-2.534;2023-03-23T17:49:32;9.90;99.90